Time;durP1;ratioP1;P1;durP2;ratioP2;P2;SDS_P1;SDS_P2;PMS_P1;PMS_P2;Temp;Humidity;BMP_temperature;BMP_pressure;BME280_temperature;BME280_humidity;BME280_pressure;Samples;Min_cycle;Max_cycle;Signal;HPM_P1;HPM_P2
2022/04/18 00:00:25;;;;;;;12.43;7.97;;;;;;;4.73;64.50;101179.26;1736129;81;21073;-75
2022/04/18 00:02:54;;;;;;;16.70;8.60;;;;;;;4.65;64.56;101178.81;1745533;81;21056;-75
2022/04/18 00:05:21;;;;;;;17.03;9.23;;;;;;;4.61;64.78;101175.80;1733168;82;20972;-74
2022/04/18 00:07:47;;;;;;;14.00;7.97;;;;;;;4.59;65.02;101175.37;1740787;80;21036;-75
2022/04/18 00:10:14;;;;;;;11.80;7.90;;;;;;;4.57;65.32;101173.20;1724832;81;21740;-77
2022/04/18 00:12:42;;;;;;;13.10;8.37;;;;;;;4.56;65.57;101172.34;1719709;82;21031;-75
2022/04/18 00:15:10;;;;;;;16.33;8.50;;;;;;;4.54;65.89;101176.66;1726909;81;21153;-75
2022/04/18 00:17:37;;;;;;;14.23;8.30;;;;;;;4.53;66.13;101168.89;1729486;81;21083;-74
2022/04/18 00:20:06;;;;;;;15.43;8.97;;;;;;;4.55;66.55;101172.36;1712417;82;20927;-74
2022/04/18 00:22:33;;;;;;;16.13;10.13;;;;;;;4.55;66.59;101169.77;1728857;81;21072;-75
2022/04/18 00:24:59;;;;;;;19.80;11.67;;;;;;;4.53;66.64;101170.19;1755168;80;21056;-82
2022/04/18 00:27:26;;;;;;;19.23;10.37;;;;;;;4.50;66.61;101169.75;1730842;81;21072;-74
2022/04/18 00:29:54;;;;;;;15.47;9.63;;;;;;;4.48;66.81;101161.09;1729187;81;21045;-75
2022/04/18 00:32:21;;;;;;;26.47;11.13;;;;;;;4.47;66.89;101164.12;1725332;81;21032;-76
2022/04/18 00:34:48;;;;;;;23.20;11.40;;;;;;;4.46;67.01;101152.42;1732163;81;21451;-74
2022/04/18 00:37:14;;;;;;;33.23;14.40;;;;;;;4.43;66.80;101152.42;1725951;82;21033;-74
2022/04/18 00:39:42;;;;;;;37.03;15.93;;;;;;;4.43;67.15;101154.62;1702431;81;21118;-74
2022/04/18 00:42:09;;;;;;;35.17;15.63;;;;;;;4.50;67.33;101150.72;1718970;81;21530;-75
2022/04/18 00:44:36;;;;;;;43.30;17.77;;;;;;;4.55;67.41;101149.84;1717436;82;21000;-74
2022/04/18 00:47:04;;;;;;;43.50;19.70;;;;;;;4.57;67.45;101148.13;1721503;81;21051;-75
2022/04/18 00:49:31;;;;;;;26.40;14.10;;;;;;;4.57;67.53;101147.23;1739247;80;21524;-75
2022/04/18 00:51:59;;;;;;;33.23;16.43;;;;;;;4.60;67.72;101140.73;1736359;81;21115;-74
2022/04/18 00:54:26;;;;;;;29.30;14.73;;;;;;;4.68;67.90;101142.49;1740725;80;21004;-74
2022/04/18 00:56:54;;;;;;;32.03;14.27;;;;;;;4.73;67.99;101135.97;1738663;80;21088;-74
2022/04/18 00:59:22;;;;;;;26.47;13.00;;;;;;;4.76;67.92;101138.56;1729277;82;21041;-74
2022/04/18 01:01:49;;;;;;;23.63;11.93;;;;;;;4.79;67.90;101129.91;1745279;80;21622;-74
2022/04/18 01:04:17;;;;;;;24.33;11.93;;;;;;;4.80;67.83;101132.95;1726702;82;21949;-74
2022/04/18 01:06:45;;;;;;;28.03;11.93;;;;;;;4.78;67.74;101126.45;1729870;80;21044;-82
2022/04/18 01:09:12;;;;;;;24.10;11.57;;;;;;;4.80;67.75;101127.31;1737707;80;21044;-80
2022/04/18 01:11:39;;;;;;;26.27;12.57;;;;;;;4.79;67.66;101128.16;1752131;80;21059;-75
2022/04/18 01:14:15;;;;;;;25.93;11.77;;;;;;;4.77;67.63;101127.33;1745962;81;21088;-75
2022/04/18 01:16:51;;;;;;;24.47;11.90;;;;;;;4.74;67.47;101122.55;1716947;81;21213;-74
2022/04/18 01:19:32;;;;;;;24.67;11.67;;;;;;;4.68;67.41;101120.42;1733660;82;21041;-75
2022/04/18 01:22:04;;;;;;;24.43;11.70;;;;;;;4.61;67.29;101117.38;1708843;82;21044;-75
2022/04/18 01:30:12;;;;;;;23.57;11.93;;;;;;;4.39;67.26;101115.67;1741125;80;21123;-75
2022/04/18 01:32:40;;;;;;;21.60;10.97;;;;;;;4.33;67.22;101113.08;1734478;80;20997;-76
2022/04/18 01:35:07;;;;;;;22.33;11.27;;;;;;;4.32;67.34;101108.73;1738483;80;21087;-76
2022/04/18 01:37:36;;;;;;;19.63;10.33;;;;;;;4.21;67.16;101109.62;1731262;81;20996;-75
2022/04/18 01:40:05;;;;;;;20.37;11.40;;;;;;;4.13;67.13;101111.34;1730579;82;21059;-76
2022/04/18 01:42:32;;;;;;;19.33;11.27;;;;;;;4.01;67.17;101104.83;1731788;80;21189;-78
2022/04/18 01:45:02;;;;;;;20.57;10.73;;;;;;;3.93;67.27;101110.44;1731631;81;21037;-75
2022/04/18 01:47:29;;;;;;;20.82;10.60;;;;;;;3.93;67.65;101108.70;1738803;80;21044;-75
2022/04/18 01:49:56;;;;;;;14.87;9.53;;;;;;;3.90;67.67;101109.14;1730235;81;21006;-75
2022/04/18 01:52:24;;;;;;;23.03;10.83;;;;;;;3.93;68.03;101110.00;1741205;82;21008;-76
2022/04/18 01:54:51;;;;;;;21.03;10.83;;;;;;;3.96;68.02;101102.25;1727284;81;21134;-75
2022/04/18 01:57:20;;;;;;;17.07;10.00;;;;;;;3.97;68.04;101102.67;1729959;80;20997;-76
2022/04/18 01:59:47;;;;;;;21.50;10.30;;;;;;;3.99;68.15;101098.36;1722438;82;21572;-76
2022/04/18 02:02:13;;;;;;;15.70;9.30;;;;;;;3.98;68.17;101097.91;1730335;80;21517;-82
2022/04/18 02:04:40;;;;;;;19.47;10.10;;;;;;;4.03;68.31;101096.62;1722687;80;21036;-75
2022/04/18 02:07:10;;;;;;;21.70;11.03;;;;;;;4.02;68.42;101099.66;1752776;80;21111;-76
2022/04/18 02:09:38;;;;;;;17.33;10.37;;;;;;;4.02;68.57;101100.95;1761599;80;20985;-77
2022/04/18 02:12:07;;;;;;;22.37;12.37;;;;;;;4.02;68.67;101097.06;1701141;81;21055;-75
2022/04/18 02:14:36;;;;;;;19.12;10.75;;;;;;;4.06;68.75;101104.84;1726939;81;21117;-75
2022/04/18 02:17:03;;;;;;;21.27;10.73;;;;;;;4.04;68.61;101098.34;1726731;82;21060;-76
2022/04/18 02:19:30;;;;;;;19.20;10.43;;;;;;;4.03;68.67;101102.67;1726709;81;21165;-75
2022/04/18 02:21:58;;;;;;;17.33;10.37;;;;;;;4.00;68.72;101100.52;1722104;80;21049;-83
2022/04/18 02:24:25;;;;;;;21.47;11.13;;;;;;;4.00;68.80;101105.27;1739513;80;21052;-76
2022/04/18 02:26:52;;;;;;;23.87;11.43;;;;;;;4.01;68.71;101103.53;1732791;80;21006;-79
2022/04/18 02:29:20;;;;;;;21.97;11.53;;;;;;;4.05;68.85;101100.09;1728795;80;21068;-75
2022/04/18 02:34:33;;;;;;;20.53;11.23;;;;;;;4.03;68.68;101093.59;1734791;80;21024;-76
2022/04/18 02:37:01;;;;;;;23.43;12.13;;;;;;;3.99;68.63;101098.36;1726704;81;21079;-76
2022/04/18 02:39:30;;;;;;;19.13;11.47;;;;;;;3.95;68.48;101092.72;1731784;82;20997;-75
2022/04/18 02:41:58;;;;;;;20.53;11.10;;;;;;;3.88;68.33;101088.41;1735169;80;21056;-76
2022/04/18 02:44:26;;;;;;;19.50;11.20;;;;;;;3.82;68.21;101090.11;1715741;81;21196;-75
2022/04/18 02:46:54;;;;;;;23.53;11.70;;;;;;;3.75;68.14;101084.91;1729712;80;21056;-75
2022/04/18 02:49:21;;;;;;;19.40;10.73;;;;;;;3.67;68.10;101086.62;1734495;82;21560;-76
2022/04/18 02:51:49;;;;;;;21.03;10.60;;;;;;;3.58;68.01;101090.06;1740092;81;21068;-75
2022/04/18 02:54:18;;;;;;;19.53;10.23;;;;;;;3.49;67.99;101081.38;1727689;82;21063;-75
2022/04/18 02:56:45;;;;;;;19.20;11.00;;;;;;;3.42;68.16;101084.40;1733613;82;21998;-76
2022/04/18 02:59:12;;;;;;;18.97;10.40;;;;;;;3.38;68.18;101082.67;1772366;80;20976;-80
2022/04/18 03:01:39;;;;;;;20.60;10.80;;;;;;;3.32;68.13;101080.03;1743033;80;21036;-75
2022/04/18 03:04:06;;;;;;;19.97;10.60;;;;;;;3.25;68.16;101080.45;1720475;81;21138;-80
2022/04/18 03:06:34;;;;;;;19.93;10.50;;;;;;;3.19;68.01;101073.96;1735620;82;21194;-76
2022/04/18 03:09:01;;;;;;;19.60;10.30;;;;;;;3.10;67.95;101076.49;1741478;82;21991;-82
2022/04/18 03:11:28;;;;;;;18.37;10.27;;;;;;;2.99;67.95;101071.70;1730721;81;21522;-75
2022/04/18 03:13:55;;;;;;;19.93;10.47;;;;;;;2.93;67.99;101068.64;1742984;80;21057;-75
2022/04/18 03:16:27;;;;;;;17.27;10.47;;;;;;;2.89;68.20;101065.62;1736242;81;21039;-76
2022/04/18 03:18:54;;;;;;;16.70;10.60;;;;;;;2.87;68.30;101071.21;1687555;82;21012;-79
2022/04/18 03:21:21;;;;;;;18.47;10.40;;;;;;;2.82;68.18;101066.00;1670837;83;21093;-75
2022/04/18 03:23:49;;;;;;;17.63;10.57;;;;;;;2.75;68.12;101065.55;1665093;85;21076;-83
2022/04/18 03:26:24;;;;;;;17.87;10.30;;;;;;;2.68;68.09;101059.88;1730420;82;20993;-79
2022/04/18 03:28:52;;;;;;;19.33;9.83;;;;;;;2.63;68.17;101058.58;1748930;80;21029;-75
2022/04/18 03:31:20;;;;;;;17.43;9.97;;;;;;;2.58;68.09;101058.12;1742254;81;21071;-75
2022/04/18 03:33:46;;;;;;;16.00;9.67;;;;;;;2.51;68.06;101061.08;1739070;82;21132;-76
2022/04/18 03:41:46;;;;;;;16.17;9.57;;;;;;;2.39;68.08;101062.30;1732856;81;21527;-75
2022/04/18 03:44:14;;;;;;;16.03;8.53;;;;;;;2.31;68.01;101058.36;1728366;82;21032;-75
2022/04/18 03:46:41;;;;;;;18.80;8.67;;;;;;;2.23;68.02;101054.41;1723823;80;21095;-78
2022/04/18 03:49:08;;;;;;;15.20;8.30;;;;;;;2.16;67.97;101056.53;1734731;80;21053;-75
2022/04/18 03:51:36;;;;;;;15.77;8.50;;;;;;;2.09;67.94;101056.03;1735951;80;21040;-75
2022/04/18 03:54:04;;;;;;;14.33;8.33;;;;;;;2.04;68.02;101056.41;1723506;81;21587;-75
2022/04/18 03:56:33;;;;;;;14.17;7.23;;;;;;;1.99;68.01;101056.36;1705495;81;21576;-75
2022/04/18 03:59:01;;;;;;;13.00;7.30;;;;;;;1.98;68.12;101049.91;1742422;81;21129;-75
2022/04/18 04:01:30;;;;;;;13.70;7.93;;;;;;;1.96;68.29;101054.19;1721190;81;21013;-76
2022/04/18 04:03:58;;;;;;;15.90;6.90;;;;;;;2.04;68.45;101055.55;1740087;80;21043;-76
2022/04/18 04:06:25;;;;;;;15.03;7.30;;;;;;;2.05;68.42;101055.98;1743917;80;21052;-76
2022/04/18 04:08:52;;;;;;;11.87;7.07;;;;;;;2.09;68.45;101054.73;1750101;79;21084;-75
2022/04/18 04:11:21;;;;;;;11.93;6.97;;;;;;;2.13;68.41;101060.79;1726002;81;21150;-77
2022/04/18 04:13:48;;;;;;;12.40;6.67;;;;;;;2.14;68.29;101058.66;1744047;81;21044;-83
2022/04/18 04:16:20;;;;;;;13.40;6.73;;;;;;;2.13;68.26;101059.06;1745793;81;21011;-84
2022/04/18 04:18:49;;;;;;;12.00;6.33;;;;;;;2.14;68.17;101062.55;1710454;81;20996;-84
2022/04/18 04:21:16;;;;;;;12.30;6.63;;;;;;;2.15;68.16;101060.38;1713865;82;21020;-79
2022/04/18 04:23:43;;;;;;;11.40;6.23;;;;;;;2.18;68.24;101063.85;1658164;83;21120;-76
2022/04/18 04:26:20;;;;;;;11.50;6.30;;;;;;;2.24;68.21;101064.33;1704162;83;21138;-75
2022/04/18 04:28:51;;;;;;;11.07;5.80;;;;;;;2.31;68.20;101070.00;1697549;82;21095;-76
2022/04/18 04:31:20;;;;;;;10.03;5.40;;;;;;;2.42;68.24;101066.20;1691696;82;21099;-77
2022/04/18 04:33:47;;;;;;;13.37;6.80;;;;;;;2.52;68.24;101063.23;1688573;83;21115;-84
2022/04/18 04:36:28;;;;;;;10.27;6.10;;;;;;;2.60;68.19;101059.83;1689651;83;21509;-82
2022/04/18 04:38:46;;;;;;;11.90;6.20;;;;;;;2.68;68.16;101063.33;1690248;83;21032;-76
2022/04/18 04:41:16;;;;;;;11.60;5.93;;;;;;;2.77;67.93;101064.23;1669294;83;21460;-76
2022/04/18 04:43:56;;;;;;;11.40;5.93;;;;;;;2.83;67.77;101065.16;1721035;82;21018;-76
2022/04/18 04:46:26;;;;;;;10.53;6.13;;;;;;;2.87;67.57;101066.03;1726016;82;21153;-75
2022/04/18 04:48:55;;;;;;;12.45;6.65;;;;;;;2.94;67.59;101069.50;1718026;81;21072;-75
2022/04/18 04:51:22;;;;;;;8.97;5.77;;;;;;;2.98;67.46;101074.72;1730950;81;21111;-79
2022/04/18 04:53:50;;;;;;;9.97;5.60;;;;;;;3.01;67.25;101072.58;1742828;80;21024;-75
2022/04/18 04:56:21;;;;;;;11.87;5.97;;;;;;;3.05;67.18;101079.08;1708255;82;21059;-75
2022/04/18 04:58:49;;;;;;;10.47;5.77;;;;;;;3.10;67.01;101077.78;1725942;82;21001;-75
2022/04/18 05:01:17;;;;;;;13.00;6.37;;;;;;;3.16;66.95;101076.95;1733488;80;21097;-84
2022/04/18 05:03:52;;;;;;;10.17;6.20;;;;;;;3.20;66.75;101073.09;1741732;80;21055;-76
2022/04/18 05:06:19;;;;;;;10.10;6.43;;;;;;;3.24;66.77;101072.26;1730474;81;21032;-75
2022/04/18 05:08:47;;;;;;;12.50;7.33;;;;;;;3.28;66.57;101071.39;1746967;80;21550;-81
2022/04/18 05:11:15;;;;;;;16.60;7.77;;;;;;;3.33;66.63;101074.02;1693997;83;21589;-75
2022/04/18 05:13:44;;;;;;;37.30;14.03;;;;;;;3.38;66.62;101071.42;1677885;83;21606;-82
2022/04/18 05:16:12;;;;;;;24.93;11.03;;;;;;;3.42;66.44;101075.77;1688241;83;20993;-76
2022/04/18 05:18:43;;;;;;;20.17;8.90;;;;;;;3.44;66.37;101080.09;1686839;84;21129;-81
2022/04/18 05:21:11;;;;;;;19.40;9.07;;;;;;;3.48;66.28;101076.63;1715899;82;21146;-82
2022/04/18 05:23:38;;;;;;;17.93;9.07;;;;;;;3.50;66.15;101079.25;1712800;82;21513;-74
2022/04/18 05:26:05;;;;;;;13.57;8.00;;;;;;;3.53;66.08;101073.63;1716442;82;21803;-76
2022/04/18 05:28:33;;;;;;;21.43;9.90;;;;;;;3.57;65.94;101079.67;1717865;82;21119;-75
2022/04/18 05:31:02;;;;;;;17.70;10.10;;;;;;;3.60;65.80;101073.64;1710817;83;21048;-76
2022/04/18 05:33:30;;;;;;;16.37;9.87;;;;;;;3.62;65.75;101073.22;1714398;81;21553;-75
2022/04/18 05:36:17;;;;;;;17.47;10.87;;;;;;;3.63;65.67;101068.45;1729227;80;21063;-77
2022/04/18 05:38:44;;;;;;;16.90;9.43;;;;;;;3.65;65.43;101066.30;1725222;81;21086;-77
2022/04/18 05:41:31;;;;;;;19.40;12.83;;;;;;;3.64;65.26;101069.77;1719947;81;21039;-76
2022/04/18 05:43:58;;;;;;;19.37;12.10;;;;;;;3.67;65.43;101067.62;1733643;81;21090;-77
2022/04/18 05:46:27;;;;;;;13.17;8.57;;;;;;;3.73;65.52;101077.99;1750897;80;21596;-76
2022/04/18 05:48:55;;;;;;;11.67;7.27;;;;;;;3.77;65.42;101070.67;1735078;80;21517;-79
2022/04/18 05:51:23;;;;;;;9.63;5.70;;;;;;;3.80;65.50;101070.23;1724420;81;21512;-79
2022/04/18 05:53:50;;;;;;;9.50;5.73;;;;;;;3.85;65.51;101069.36;1731386;81;21064;-75
2022/04/18 05:56:18;;;;;;;9.27;5.33;;;;;;;3.91;65.25;101078.03;1647672;85;21118;-75
2022/04/18 05:58:57;;;;;;;13.17;6.93;;;;;;;3.93;65.15;101072.39;1735149;81;21110;-75
2022/04/18 06:01:28;;;;;;;8.65;5.05;;;;;;;3.98;65.25;101071.11;1667672;82;21055;-81
2022/04/18 06:03:58;;;;;;;9.97;5.20;;;;;;;4.01;65.02;101067.22;1681600;83;21104;-80
2022/04/18 06:06:26;;;;;;;8.93;5.47;;;;;;;4.06;65.07;101064.64;1746925;80;21071;-79
2022/04/18 06:08:54;;;;;;;9.23;5.57;;;;;;;4.11;65.03;101065.51;1743380;80;20992;-82
2022/04/18 06:11:27;;;;;;;9.33;5.70;;;;;;;4.17;64.98;101064.20;1717907;81;20992;-77
2022/04/18 06:14:05;;;;;;;9.10;5.20;;;;;;;4.21;64.99;101056.84;1734776;81;21076;-75
2022/04/18 06:16:38;;;;;;;6.87;4.90;;;;;;;4.25;64.77;101058.58;1722912;81;21157;-76
2022/04/18 06:19:08;;;;;;;7.07;5.23;;;;;;;4.30;64.70;101058.59;1717536;82;21519;-77
2022/04/18 06:21:37;;;;;;;7.30;5.33;;;;;;;4.36;64.77;101061.17;1721732;82;21107;-77
2022/04/18 06:24:20;;;;;;;11.73;6.63;;;;;;;4.41;64.69;101052.95;1704236;82;20992;-78
2022/04/18 06:26:48;;;;;;;9.63;5.97;;;;;;;4.46;64.78;101053.38;1721788;80;21441;-77
2022/04/18 06:29:23;;;;;;;11.35;6.25;;;;;;;4.51;64.63;101058.54;1747261;81;21392;-77
2022/04/18 06:31:56;;;;;;;10.13;6.13;;;;;;;4.55;64.56;101051.63;1731036;81;21067;-78
2022/04/18 06:34:30;;;;;;;8.60;5.77;;;;;;;4.61;64.59;101058.11;1710870;82;21066;-78
2022/04/18 06:37:00;;;;;;;9.67;5.63;;;;;;;4.64;64.35;101058.09;1710248;83;21063;-77
2022/04/18 06:39:33;;;;;;;8.17;5.50;;;;;;;4.68;64.31;101058.09;1703872;82;21552;-79
2022/04/18 06:42:09;;;;;;;8.97;6.00;;;;;;;4.76;64.53;101052.86;1708021;82;22028;-77
2022/04/18 06:44:43;;;;;;;10.20;5.87;;;;;;;4.83;64.46;101050.69;1640513;84;21183;-76
2022/04/18 06:47:12;;;;;;;9.33;5.30;;;;;;;4.91;64.16;101052.83;1666287;84;21088;-76
2022/04/18 06:49:42;;;;;;;9.10;5.55;;;;;;;4.98;64.20;101057.55;1668544;83;21576;-76
2022/04/18 06:52:12;;;;;;;10.90;6.80;;;;;;;5.07;64.27;101061.44;1667766;84;21570;-76
2022/04/18 06:54:59;;;;;;;9.03;6.13;;;;;;;5.12;63.83;101063.55;1723052;81;21253;-74
2022/04/18 06:57:29;;;;;;;9.03;6.53;;;;;;;5.19;63.99;101059.22;1736776;81;20968;-75
2022/04/18 06:59:58;;;;;;;9.70;6.30;;;;;;;5.30;63.90;101060.03;1724306;82;21012;-74
2022/04/18 07:02:27;;;;;;;10.00;5.60;;;;;;;5.39;64.04;101059.12;1718836;81;21046;-74
2022/04/18 07:04:56;;;;;;;10.87;7.70;;;;;;;5.48;63.65;101053.86;1710731;82;21017;-75
2022/04/18 07:07:29;;;;;;;10.20;5.80;;;;;;;5.58;63.86;101049.48;1697542;83;21072;-74
2022/04/18 07:09:58;;;;;;;37.97;34.03;;;;;;;5.70;63.73;101050.69;1713580;83;21122;-78
2022/04/18 07:12:26;;;;;;;11.03;7.93;;;;;;;5.80;63.43;101049.77;1718933;81;21033;-80
2022/04/18 07:14:56;;;;;;;9.53;5.70;;;;;;;5.88;63.35;101052.31;1735790;80;21040;-77
2022/04/18 07:17:23;;;;;;;15.53;8.17;;;;;;;6.00;63.48;101047.48;1740967;81;21053;-75
2022/04/18 07:19:51;;;;;;;13.50;8.03;;;;;;;6.11;63.26;101046.09;1730367;80;21279;-77
2022/04/18 07:22:19;;;;;;;20.23;11.07;;;;;;;6.21;62.99;101052.97;1745355;81;21477;-75
2022/04/18 07:24:48;;;;;;;31.00;15.87;;;;;;;6.28;62.73;101053.76;1743617;81;21104;-78
2022/04/18 07:27:15;;;;;;;37.43;19.47;;;;;;;6.34;62.70;101055.86;1746676;80;21017;-78
2022/04/18 07:29:50;;;;;;;10.37;6.60;;;;;;;6.45;62.65;101057.06;1746976;80;21373;-78
2022/04/18 07:32:17;;;;;;;8.67;5.93;;;;;;;6.56;62.50;101053.91;1754311;80;21096;-78
2022/04/18 07:34:47;;;;;;;12.80;9.60;;;;;;;6.65;62.27;101047.33;1750514;80;21012;-78
2022/04/18 07:37:15;;;;;;;13.17;9.40;;;;;;;6.74;62.16;101051.58;1744581;80;21053;-77
2022/04/18 07:39:42;;;;;;;10.70;6.57;;;;;;;6.84;61.84;101049.71;1746387;80;21001;-77
2022/04/18 07:42:09;;;;;;;27.90;14.33;;;;;;;6.96;62.06;101049.59;1760193;80;21053;-77
2022/04/18 07:44:37;;;;;;;18.43;10.37;;;;;;;7.08;61.71;101051.18;1752103;81;21175;-77
2022/04/18 07:47:05;;;;;;;12.57;7.07;;;;;;;7.16;61.46;101048.04;1736248;81;21044;-77
2022/04/18 07:49:33;;;;;;;8.83;6.10;;;;;;;7.26;61.51;101051.38;1756667;80;21072;-79
2022/04/18 07:52:00;;;;;;;10.40;6.23;;;;;;;7.41;61.34;101047.27;1735887;81;20986;-77
2022/04/18 07:54:32;;;;;;;9.00;6.07;;;;;;;7.54;61.37;101050.59;1748990;80;20984;-78
2022/04/18 07:57:00;;;;;;;9.80;7.63;;;;;;;7.73;61.39;101046.83;1764845;80;21197;-77
2022/04/18 07:59:29;;;;;;;10.33;7.07;;;;;;;7.89;60.96;101040.91;1740309;80;21056;-78
2022/04/18 08:01:56;;;;;;;24.90;13.70;;;;;;;8.02;60.56;101037.22;1733496;81;21478;-74
2022/04/18 08:04:42;;;;;;;19.87;11.07;;;;;;;8.11;60.31;101039.27;1733867;81;21107;-79
2022/04/18 08:07:11;;;;;;;15.67;9.53;;;;;;;8.19;59.94;101043.46;1695930;81;21349;-79
2022/04/18 08:09:38;;;;;;;11.43;7.30;;;;;;;8.34;60.13;101042.78;1724128;82;21105;-79
2022/04/18 08:12:07;;;;;;;9.67;6.80;;;;;;;8.52;59.89;101046.86;1706364;82;21070;-79
2022/04/18 08:14:36;;;;;;;14.13;7.75;;;;;;;8.62;59.57;101040.14;1713523;81;21515;-78
2022/04/18 08:17:08;;;;;;;9.53;6.50;;;;;;;8.76;59.49;101040.30;1710911;81;21096;-79
2022/04/18 08:19:39;;;;;;;11.00;6.87;;;;;;;8.90;59.13;101039.61;1703523;82;21564;-79
2022/04/18 08:22:06;;;;;;;13.77;9.13;;;;;;;9.03;58.64;101041.51;1721809;82;21124;-78
2022/04/18 08:24:35;;;;;;;7.20;5.50;;;;;;;9.13;58.27;101044.36;1712002;82;21542;-80
2022/04/18 08:27:20;;;;;;;9.80;6.50;;;;;;;9.23;58.06;101035.86;1728706;81;21083;-79
2022/04/18 08:29:55;;;;;;;12.07;7.00;;;;;;;9.37;58.01;101032.52;1729436;82;21047;-79
2022/04/18 08:32:24;;;;;;;8.77;6.40;;;;;;;9.45;57.42;101033.64;1717384;82;21013;-80
2022/04/18 08:34:54;;;;;;;8.37;5.83;;;;;;;9.53;57.06;101036.52;1729747;82;21175;-80
2022/04/18 08:37:21;;;;;;;9.30;6.50;;;;;;;9.66;56.88;101027.92;1733250;82;21356;-89
2022/04/18 08:39:49;;;;;;;6.93;5.80;;;;;;;9.82;56.58;101029.74;1731380;81;21039;-79
2022/04/18 08:42:22;;;;;;;7.77;6.13;;;;;;;9.96;56.42;101028.10;1716546;82;21020;-82
2022/04/18 08:44:52;;;;;;;8.53;5.47;;;;;;;10.08;55.92;101025.62;1736550;81;21072;-80
2022/04/18 08:52:53;;;;;;;8.90;5.80;;;;;;;10.53;55.05;101017.49;1738573;81;21048;-82
2022/04/18 08:55:35;;;;;;;6.90;5.20;;;;;;;10.72;54.77;101018.70;1740042;81;21104;-79
2022/04/18 08:58:11;;;;;;;8.13;4.87;;;;;;;10.88;54.49;101016.06;1728293;81;21067;-81
2022/04/18 09:00:38;;;;;;;6.33;5.10;;;;;;;11.06;53.96;101018.62;1699153;83;21176;-82
2022/04/18 09:03:07;;;;;;;6.47;4.90;;;;;;;11.20;53.26;101009.50;1728953;81;21619;-78
2022/04/18 09:05:37;;;;;;;6.87;4.77;;;;;;;11.31;53.21;101017.45;1716763;81;21530;-79
2022/04/18 09:08:08;;;;;;;5.97;4.63;;;;;;;11.47;52.62;101009.94;1733240;81;21075;-79
2022/04/18 09:10:39;;;;;;;8.40;4.77;;;;;;;11.57;52.38;101002.66;1719640;81;21194;-83
2022/04/18 09:13:13;;;;;;;8.48;6.25;;;;;;;11.73;52.10;101005.66;1735231;81;21122;-85
2022/04/18 09:15:49;;;;;;;7.65;5.42;;;;;;;11.87;51.69;100996.91;1729188;81;21046;-80
2022/04/18 09:18:21;;;;;;;8.10;5.28;;;;;;;11.99;51.63;100987.29;1753557;81;21073;-79
2022/04/18 09:20:55;;;;;;;6.42;4.65;;;;;;;12.18;51.52;100984.91;1718824;81;21695;-77
2022/04/18 09:23:32;;;;;;;8.25;6.40;;;;;;;12.38;50.73;100989.92;1679190;83;21078;-77
2022/04/18 09:26:08;;;;;;;7.53;4.53;;;;;;;12.46;50.38;100978.69;1746106;81;21223;-77
2022/04/18 09:28:42;;;;;;;6.92;3.75;;;;;;;12.57;50.12;100976.98;1700635;83;27651;-82
2022/04/18 09:31:13;;;;;;;6.45;4.17;;;;;;;12.68;49.33;100973.05;1681911;84;21051;-82
2022/04/18 09:33:48;;;;;;;7.95;4.85;;;;;;;12.82;49.17;100975.63;1699116;83;21138;-78
2022/04/18 09:36:21;;;;;;;7.97;4.58;;;;;;;12.98;48.89;100971.98;1686280;83;21496;-77
2022/04/18 09:38:54;;;;;;;6.83;4.50;;;;;;;13.03;48.32;100970.89;1683099;82;21133;-77
2022/04/18 09:41:32;;;;;;;4.00;3.60;;;;;;;13.13;48.33;100965.64;1759123;81;21539;-77
2022/04/18 09:44:01;;;;;;;5.10;3.27;;;;;;;13.39;48.06;100959.88;1763681;80;21073;-77
2022/04/18 09:46:32;;;;;;;3.80;3.20;;;;;;;13.50;46.76;100959.45;1746257;80;21116;-77
2022/04/18 09:49:03;;;;;;;5.42;3.87;;;;;;;13.58;46.81;100953.42;1677528;83;21035;-77
2022/04/18 09:51:34;;;;;;;6.08;4.28;;;;;;;13.80;46.52;100956.00;1731724;81;21109;-79
2022/04/18 09:54:05;;;;;;;4.45;3.45;;;;;;;13.86;46.01;100954.92;1713633;82;21556;-77
2022/04/18 09:56:32;;;;;;;5.78;3.55;;;;;;;13.99;46.01;100943.77;1750798;81;21101;-82
2022/04/18 09:59:00;;;;;;;6.03;3.85;;;;;;;14.07;45.36;100943.44;1737098;81;21091;-78
2022/04/18 10:01:28;;;;;;;4.42;3.22;;;;;;;14.15;44.76;100946.61;1746227;81;21607;-80
2022/04/18 10:03:56;;;;;;;5.37;3.20;;;;;;;14.29;44.60;100940.73;1738654;81;21137;-78
2022/04/18 10:06:26;;;;;;;3.87;3.33;;;;;;;14.45;43.94;100935.65;1724415;81;21047;-80
2022/04/18 10:08:54;;;;;;;2.72;2.42;;;;;;;14.53;43.62;100941.47;1737290;81;21126;-78
2022/04/18 10:11:23;;;;;;;4.17;3.08;;;;;;;14.70;43.25;100931.47;1737649;81;21193;-77
2022/04/18 10:13:50;;;;;;;3.77;2.15;;;;;;;14.89;43.13;100936.30;1731435;81;21036;-78
2022/04/18 10:16:19;;;;;;;2.22;1.85;;;;;;;15.09;42.05;100931.39;1746576;82;21099;-77
2022/04/18 10:18:53;;;;;;;3.15;1.98;;;;;;;15.22;41.61;100923.75;1743305;81;21506;-76
2022/04/18 10:21:30;;;;;;;2.08;1.87;;;;;;;15.29;41.07;100926.47;1740346;80;21506;-76
2022/04/18 10:24:14;;;;;;;3.27;1.92;;;;;;;15.52;41.39;100924.05;1737327;82;21071;-75
2022/04/18 10:27:03;;;;;;;2.95;2.20;;;;;;;15.61;40.47;100918.77;1733413;81;21515;-74
2022/04/18 10:29:35;;;;;;;3.72;2.20;;;;;;;15.61;40.16;100914.81;1732620;82;21130;-82
2022/04/18 10:32:04;;;;;;;4.53;2.70;;;;;;;15.96;39.51;100904.26;1725874;82;21600;-74
2022/04/18 10:34:35;;;;;;;3.45;2.47;;;;;;;15.96;39.51;100904.26;1730924;81;27567;-74
2022/04/18 10:37:04;;;;;;;3.10;2.37;;;;;;;16.13;38.87;100906.91;1747909;81;21023;-77
2022/04/18 10:39:35;;;;;;;3.10;2.47;;;;;;;16.19;38.57;100908.37;1728635;82;21174;-77
2022/04/18 10:42:22;;;;;;;3.35;2.37;;;;;;;16.37;39.07;100906.06;1725898;82;21142;-77
2022/04/18 10:45:14;;;;;;;4.70;2.60;;;;;;;16.68;38.99;100901.77;1732975;81;21503;-86
2022/04/18 10:48:03;;;;;;;2.92;2.35;;;;;;;17.02;38.85;100893.34;1738900;81;21024;-76
2022/04/18 10:50:48;;;;;;;2.83;2.30;;;;;;;17.23;37.85;100885.96;1733908;82;21063;-77
2022/04/18 10:53:35;;;;;;;3.27;2.55;;;;;;;17.18;37.18;100883.56;1729446;82;21020;-92
2022/04/18 10:56:09;;;;;;;4.10;3.37;;;;;;;17.35;37.63;100881.30;1728410;83;21117;-82
2022/04/18 10:58:37;;;;;;;3.72;2.58;;;;;;;17.79;37.58;100884.03;1738496;81;21154;-77
2022/04/18 11:01:09;;;;;;;2.83;2.30;;;;;;;17.96;37.18;100881.69;1746532;81;21544;-90
2022/04/18 11:03:41;;;;;;;4.62;2.80;;;;;;;18.12;36.87;100886.05;1733819;82;21037;-79
2022/04/18 11:06:21;;;;;;;3.67;2.58;;;;;;;18.19;36.41;100882.94;1735255;80;21461;-81
2022/04/18 11:09:08;;;;;;;3.72;2.58;;;;;;;17.98;35.89;100881.58;1744912;81;21138;-76
2022/04/18 11:12:06;;;;;;;5.90;2.58;;;;;;;18.01;35.96;100876.97;1740429;81;21052;-84
2022/04/18 11:14:52;;;;;;;3.83;2.58;;;;;;;17.90;35.44;100874.08;1736339;82;21103;-82
2022/04/18 11:17:35;;;;;;;3.92;2.50;;;;;;;17.89;35.47;100875.03;1727088;81;21132;-83
2022/04/18 11:20:28;;;;;;;3.40;2.50;;;;;;;18.01;35.41;100869.01;1741006;81;21509;-81
2022/04/18 11:23:26;;;;;;;3.10;2.60;;;;;;;18.18;35.35;100870.63;1735209;80;21163;-82
2022/04/18 11:26:05;;;;;;;4.03;3.00;;;;;;;18.41;34.77;100865.22;1717405;82;21125;-80
2022/04/18 11:28:44;;;;;;;2.98;2.33;;;;;;;18.57;34.59;100865.12;1726207;81;21046;-82
2022/04/18 11:31:21;;;;;;;2.95;2.40;;;;;;;18.81;34.43;100860.06;1731249;80;21072;-86
2022/04/18 11:33:48;;;;;;;4.85;3.08;;;;;;;19.06;34.39;100849.19;1706661;82;21008;-83
2022/04/18 11:36:15;;;;;;;5.05;2.70;;;;;;;19.38;34.07;100847.91;1693554;83;21098;-82
2022/04/18 11:38:42;;;;;;;3.92;2.65;;;;;;;19.45;33.36;100847.02;1697917;82;21066;-82
2022/04/18 11:41:13;;;;;;;4.60;2.70;;;;;;;19.47;33.41;100849.09;1710082;83;21566;-82
2022/04/18 11:43:41;;;;;;;2.92;2.62;;;;;;;19.51;32.80;100849.73;1762359;80;22194;-82
2022/04/18 11:46:09;;;;;;;4.53;2.87;;;;;;;19.44;32.69;100841.33;1752467;81;21270;-82
2022/04/18 11:48:37;;;;;;;4.80;2.67;;;;;;;19.58;32.88;100838.59;1738737;81;21762;-81
2022/04/18 11:51:06;;;;;;;3.12;2.50;;;;;;;19.68;32.33;100839.34;1738825;80;21070;-82
2022/04/18 11:53:34;;;;;;;4.30;2.80;;;;;;;19.71;32.41;100837.32;1752768;80;22018;-82
2022/04/18 11:56:06;;;;;;;3.40;3.08;;;;;;;19.85;32.17;100829.72;1748471;80;21494;-83
2022/04/18 11:58:40;;;;;;;4.45;3.22;;;;;;;19.95;31.80;100819.28;1732845;81;21533;-82